createdAt,value
2023-03-30T00:01:58.000Z,9.00
2023-03-30T00:04:27.502Z,8.33
2023-03-30T00:06:55.622Z,9.00
2023-03-30T00:09:23.519Z,10.00
2023-03-30T00:11:51.476Z,10.00
2023-03-30T00:14:22.854Z,8.00
2023-03-30T00:16:51.228Z,8.00
2023-03-30T00:19:19.243Z,8.00
2023-03-30T00:21:47.670Z,6.00
2023-03-30T00:24:15.527Z,7.00
2023-03-30T00:26:43.445Z,8.00
2023-03-30T00:31:39.746Z,6.00
2023-03-30T00:34:07.682Z,6.00
2023-03-30T00:36:37.318Z,7.00
2023-03-30T00:39:06.867Z,5.00
2023-03-30T00:41:37.119Z,5.00
2023-03-30T00:44:08.281Z,13.00
2023-03-30T00:46:36.479Z,7.00
2023-03-30T00:49:09.202Z,6.00
2023-03-30T00:51:42.561Z,5.00
2023-03-30T00:54:16.803Z,6.00
2023-03-30T00:56:45.605Z,6.00
2023-03-30T00:59:14.587Z,6.00
2023-03-30T01:01:42.677Z,6.00
2023-03-30T01:04:13.338Z,4.00
2023-03-30T01:06:46.095Z,3.00
2023-03-30T01:09:15.666Z,4.00
2023-03-30T01:11:43.930Z,4.50
2023-03-30T01:14:13.910Z,6.00
2023-03-30T01:17:01.945Z,6.00
2023-03-30T01:20:12.485Z,3.50
2023-03-30T01:25:36.895Z,6.00
2023-03-30T01:28:13.776Z,6.00
2023-03-30T01:30:57.217Z,5.00
2023-03-30T01:33:59.898Z,6.50
2023-03-30T01:36:39.983Z,6.00
2023-03-30T01:39:42.036Z,7.00
2023-03-30T01:42:40.162Z,6.00
2023-03-30T01:45:31.790Z,5.50
2023-03-30T01:48:16.538Z,6.00
2023-03-30T01:50:54.043Z,6.00
2023-03-30T01:53:32.104Z,4.00
2023-03-30T01:56:02.946Z,9.00
2023-03-30T01:59:05.451Z,0.00
2023-03-30T02:01:39.476Z,3.00
2023-03-30T02:04:10.430Z,3.00
2023-03-30T02:07:15.874Z,4.00
2023-03-30T02:09:46.741Z,3.00
2023-03-30T02:12:15.176Z,2.00
2023-03-30T02:14:44.638Z,6.00
2023-03-30T02:17:20.218Z,4.00
2023-03-30T02:19:48.399Z,6.00
2023-03-30T02:22:19.065Z,4.00
2023-03-30T02:24:49.543Z,4.00
2023-03-30T02:27:19.748Z,3.00
2023-03-30T02:29:49.552Z,3.50
2023-03-30T02:32:24.877Z,6.00
2023-03-30T02:35:16.044Z,5.00
2023-03-30T02:37:46.954Z,6.00
2023-03-30T02:40:15.523Z,8.00
2023-03-30T02:42:49.667Z,6.00
2023-03-30T02:45:26.220Z,6.00
2023-03-30T02:48:26.115Z,5.50
2023-03-30T02:51:18.540Z,6.00
2023-03-30T02:54:22.064Z,6.00
2023-03-30T02:57:34.150Z,6.00
2023-03-30T03:00:30.262Z,6.00
2023-03-30T03:03:05.145Z,6.00
2023-03-30T03:05:34.079Z,7.00
2023-03-30T03:08:18.971Z,8.50
2023-03-30T03:10:47.442Z,7.00
2023-03-30T03:13:16.439Z,8.00
2023-03-30T03:15:46.449Z,9.00
2023-03-30T03:18:14.400Z,9.00
2023-03-30T03:20:42.943Z,6.50
2023-03-30T03:23:10.867Z,7.00
2023-03-30T03:25:50.954Z,7.00
2023-03-30T03:28:21.362Z,9.33
2023-03-30T03:30:53.597Z,6.00
2023-03-30T03:33:27.143Z,5.00
2023-03-30T03:36:08.652Z,6.00
2023-03-30T03:38:38.561Z,7.50
2023-03-30T03:41:07.574Z,4.00
2023-03-30T03:43:36.952Z,6.00
2023-03-30T03:46:05.057Z,4.00
2023-03-30T03:48:33.140Z,4.00
2023-03-30T03:51:01.299Z,6.00
2023-03-30T03:53:32.393Z,7.00
2023-03-30T03:56:03.676Z,6.00
2023-03-30T03:58:32.004Z,5.00
2023-03-30T04:01:01.779Z,7.50
2023-03-30T04:03:30.824Z,5.00
2023-03-30T04:06:00.910Z,9.00
2023-03-30T04:08:29.369Z,8.00
2023-03-30T04:11:12.229Z,8.00
2023-03-30T04:14:12.810Z,8.00
2023-03-30T04:17:03.851Z,6.00
2023-03-30T04:19:42.599Z,11.00
2023-03-30T04:22:26.551Z,7.00
2023-03-30T04:25:29.303Z,7.00
2023-03-30T04:28:16.273Z,3.00
2023-03-30T04:34:10.507Z,7.00
2023-03-30T04:37:07.723Z,7.00
2023-03-30T04:40:05.867Z,9.00
2023-03-30T04:42:53.804Z,6.00
2023-03-30T04:45:33.117Z,7.00
2023-03-30T04:48:01.148Z,6.50
2023-03-30T04:50:49.816Z,7.00
2023-03-30T04:56:30.932Z,8.00
2023-03-30T04:59:12.350Z,8.00
2023-03-30T05:02:04.164Z,7.00
2023-03-30T05:05:01.507Z,7.00
2023-03-30T05:07:49.010Z,9.00
2023-03-30T05:10:28.892Z,8.00
2023-03-30T05:13:13.246Z,9.00
2023-03-30T05:16:20.241Z,7.00
2023-03-30T05:19:06.926Z,13.00
2023-03-30T05:21:47.406Z,11.00
2023-03-30T05:24:31.866Z,13.00
2023-03-30T05:27:22.116Z,7.50
2023-03-30T05:30:09.606Z,10.00
2023-03-30T05:33:03.788Z,19.50
2023-03-30T05:35:55.703Z,15.50
2023-03-30T05:38:42.409Z,24.00
2023-03-30T05:41:24.045Z,21.00
2023-03-30T05:44:22.441Z,20.50
2023-03-30T05:47:10.558Z,14.00
2023-03-30T05:49:56.375Z,18.00
2023-03-30T05:52:33.904Z,14.50
2023-03-30T05:55:17.838Z,15.00
2023-03-30T05:58:04.459Z,22.50
2023-03-30T06:00:54.390Z,18.00
2023-03-30T06:03:29.569Z,20.50
2023-03-30T06:05:58.663Z,19.00
2023-03-30T06:10:58.322Z,13.00
2023-03-30T06:13:27.985Z,13.00
2023-03-30T06:15:57.118Z,16.00
2023-03-30T06:21:02.674Z,11.00
2023-03-30T06:23:31.200Z,12.00
2023-03-30T06:26:01.350Z,9.00
2023-03-30T06:28:32.090Z,12.00
2023-03-30T06:31:01.937Z,8.00
2023-03-30T06:33:31.734Z,7.00
2023-03-30T06:36:02.511Z,10.00
2023-03-30T06:40:58.248Z,9.00
2023-03-30T06:43:31.648Z,8.00
2023-03-30T06:46:02.444Z,9.50
2023-03-30T06:48:30.508Z,8.00
2023-03-30T06:51:24.607Z,8.50
2023-03-30T06:53:53.470Z,10.00
2023-03-30T06:56:22.733Z,12.00
2023-03-30T06:59:05.555Z,9.00
2023-03-30T07:01:36.151Z,8.00
2023-03-30T07:04:18.306Z,8.00
2023-03-30T07:07:15.464Z,8.00
2023-03-30T07:09:44.117Z,9.00
2023-03-30T07:12:12.535Z,9.00
2023-03-30T07:14:41.284Z,9.00
2023-03-30T07:17:09.830Z,14.00
2023-03-30T07:19:37.850Z,10.00
2023-03-30T07:22:05.737Z,8.00
2023-03-30T07:24:33.993Z,10.00
2023-03-30T07:27:02.105Z,8.50
2023-03-30T07:29:30.630Z,7.00
2023-03-30T07:31:58.568Z,10.00
2023-03-30T07:34:27.007Z,5.00
2023-03-30T07:36:56.827Z,16.00
2023-03-30T07:39:30.149Z,10.00
2023-03-30T07:41:59.727Z,10.00
2023-03-30T07:44:29.474Z,6.00
2023-03-30T07:46:58.673Z,6.50
2023-03-30T07:49:27.474Z,7.50
2023-03-30T07:51:55.734Z,4.00
2023-03-30T07:54:27.796Z,7.00
2023-03-30T07:57:07.581Z,7.00
2023-03-30T07:59:35.894Z,7.00
2023-03-30T08:02:14.525Z,9.00
2023-03-30T08:04:53.262Z,7.50
2023-03-30T08:07:30.294Z,7.00
2023-03-30T08:10:05.238Z,5.00
2023-03-30T08:12:33.196Z,6.00
2023-03-30T08:15:02.226Z,6.00
2023-03-30T08:17:31.075Z,6.00
2023-03-30T08:19:59.266Z,5.00
2023-03-30T08:22:27.234Z,6.00
2023-03-30T08:24:55.260Z,4.00
2023-03-30T08:27:23.255Z,8.00
2023-03-30T08:29:53.684Z,7.00
2023-03-30T08:32:21.608Z,6.00
2023-03-30T08:34:49.936Z,10.00
2023-03-30T08:37:17.829Z,10.00
2023-03-30T08:39:45.769Z,8.00
2023-03-30T08:42:42.064Z,8.00
2023-03-30T08:45:12.348Z,8.00
2023-03-30T08:47:45.336Z,7.00
2023-03-30T08:50:25.438Z,7.00
2023-03-30T08:52:53.618Z,7.00
2023-03-30T08:55:58.677Z,5.00
2023-03-30T08:58:36.006Z,6.67
2023-03-30T09:01:25.659Z,7.00
2023-03-30T09:04:19.023Z,6.00
2023-03-30T09:06:51.896Z,7.50
2023-03-30T09:09:23.488Z,7.00
2023-03-30T09:12:08.941Z,7.00
2023-03-30T09:14:46.230Z,7.00
2023-03-30T09:17:22.049Z,6.50
2023-03-30T09:20:13.912Z,6.33
2023-03-30T09:22:44.331Z,5.33
2023-03-30T09:25:51.584Z,6.00
2023-03-30T09:28:44.764Z,5.50
2023-03-30T09:31:28.921Z,6.00
2023-03-30T09:34:08.845Z,6.00
2023-03-30T09:36:53.274Z,9.00
2023-03-30T09:39:25.629Z,6.50
2023-03-30T09:42:16.492Z,5.00
2023-03-30T09:45:02.054Z,6.00
2023-03-30T09:47:37.832Z,5.00
2023-03-30T09:50:09.856Z,5.00
2023-03-30T09:52:41.741Z,5.00
2023-03-30T09:55:22.082Z,6.00
2023-03-30T09:57:51.443Z,4.00
2023-03-30T10:00:33.184Z,6.00
2023-03-30T10:03:03.871Z,5.00
2023-03-30T10:05:35.072Z,5.00
2023-03-30T10:08:21.770Z,6.00
2023-03-30T10:11:06.280Z,4.00
2023-03-30T10:13:37.774Z,5.00
2023-03-30T10:16:22.098Z,5.00
2023-03-30T10:18:54.367Z,5.00
2023-03-30T10:21:27.450Z,3.00
2023-03-30T10:24:13.985Z,4.50
2023-03-30T10:26:46.670Z,7.00
2023-03-30T10:29:18.459Z,5.00
2023-03-30T10:31:49.997Z,4.50
2023-03-30T10:34:27.429Z,2.00
2023-03-30T10:36:55.624Z,4.00
2023-03-30T10:39:29.843Z,4.00
2023-03-30T10:42:01.357Z,3.00
2023-03-30T10:44:36.511Z,4.00
2023-03-30T10:47:15.450Z,3.00
2023-03-30T10:49:56.256Z,2.50
2023-03-30T10:52:43.060Z,7.00
2023-03-30T10:55:31.014Z,4.00
2023-03-30T10:58:33.486Z,4.00
2023-03-30T11:01:20.747Z,4.00
2023-03-30T11:03:59.835Z,4.00
2023-03-30T11:06:35.910Z,5.00
2023-03-30T11:09:09.089Z,3.00
2023-03-30T11:11:44.957Z,4.00
2023-03-30T11:14:21.930Z,5.00
2023-03-30T11:17:05.253Z,6.00
2023-03-30T11:19:40.968Z,6.50
2023-03-30T11:22:36.958Z,5.67
2023-03-30T11:25:36.373Z,4.00
2023-03-30T11:28:36.830Z,8.00
2023-03-30T11:31:35.534Z,6.00
2023-03-30T11:34:17.608Z,6.50
2023-03-30T11:36:55.937Z,6.00
2023-03-30T11:39:32.664Z,6.00
2023-03-30T11:42:15.312Z,6.00
2023-03-30T11:44:43.760Z,5.00
2023-03-30T11:47:30.737Z,5.50
2023-03-30T11:50:12.142Z,7.00
2023-03-30T11:53:02.319Z,4.00
2023-03-30T11:56:00.487Z,6.00
2023-03-30T11:58:37.691Z,5.00
2023-03-30T12:01:18.203Z,6.50
2023-03-30T12:03:55.990Z,9.00
2023-03-30T12:06:38.612Z,9.00
2023-03-30T12:09:14.584Z,7.00
2023-03-30T12:11:51.296Z,8.00
2023-03-30T12:14:19.143Z,8.00
2023-03-30T12:16:53.064Z,8.50
2023-03-30T12:19:31.032Z,9.50
2023-03-30T12:22:04.459Z,12.00
2023-03-30T12:25:00.539Z,8.00
2023-03-30T12:27:31.370Z,6.00
2023-03-30T12:30:23.325Z,7.00
2023-03-30T12:33:24.507Z,8.00
2023-03-30T12:35:58.881Z,10.00
2023-03-30T12:38:38.466Z,7.00
2023-03-30T12:41:20.819Z,7.00
2023-03-30T12:44:19.286Z,5.00
2023-03-30T12:47:06.781Z,10.00
2023-03-30T12:50:26.516Z,8.00
2023-03-30T12:53:06.429Z,7.00
2023-03-30T12:55:52.318Z,7.00
2023-03-30T12:59:08.564Z,10.00
2023-03-30T13:01:43.688Z,15.00
2023-03-30T13:04:24.040Z,13.50
2023-03-30T13:07:02.795Z,21.50
2023-03-30T13:09:35.001Z,18.00
2023-03-30T13:12:02.803Z,17.00
2023-03-30T13:14:30.792Z,14.00
2023-03-30T13:16:58.778Z,16.00
2023-03-30T13:19:32.943Z,16.00
2023-03-30T13:22:13.131Z,19.00
2023-03-30T13:25:22.369Z,14.00
2023-03-30T13:27:52.738Z,7.50
2023-03-30T13:30:20.948Z,10.67
2023-03-30T13:33:12.517Z,9.67
2023-03-30T13:35:56.637Z,17.00
2023-03-30T13:38:31.140Z,20.00
2023-03-30T13:41:20.962Z,13.50
2023-03-30T13:43:55.231Z,20.00
2023-03-30T13:46:58.888Z,16.00
2023-03-30T13:49:36.005Z,17.00
2023-03-30T13:52:12.375Z,16.00
2023-03-30T13:54:41.894Z,19.00
2023-03-30T13:57:13.684Z,21.00
2023-03-30T14:00:23.998Z,20.00
2023-03-30T14:02:51.925Z,21.00
2023-03-30T14:05:23.236Z,21.50
2023-03-30T14:07:55.226Z,20.00
2023-03-30T14:10:24.781Z,20.00
2023-03-30T14:12:56.723Z,21.00
2023-03-30T14:15:34.087Z,20.50
2023-03-30T14:18:02.916Z,21.00
2023-03-30T14:20:50.942Z,18.50
2023-03-30T14:23:41.315Z,20.00
2023-03-30T14:26:27.755Z,17.00
2023-03-30T14:28:57.633Z,23.50
2023-03-30T14:33:55.956Z,21.00
2023-03-30T14:36:24.619Z,20.00
2023-03-30T14:38:54.152Z,21.00
2023-03-30T14:41:27.386Z,19.00
2023-03-30T14:46:32.210Z,19.00
2023-03-30T14:49:00.236Z,21.00
2023-03-30T14:54:06.941Z,15.00
2023-03-30T14:59:05.213Z,14.00
2023-03-30T15:01:34.199Z,17.00
2023-03-30T15:04:09.002Z,21.00
2023-03-30T15:06:38.178Z,19.00
2023-03-30T15:11:39.633Z,15.00
2023-03-30T15:14:11.004Z,17.00
2023-03-30T15:16:39.362Z,16.00
2023-03-30T15:19:14.121Z,17.50
2023-03-30T15:21:43.450Z,19.00
2023-03-30T15:24:16.861Z,19.00
2023-03-30T15:26:47.893Z,14.00
2023-03-30T15:29:19.849Z,16.00
2023-03-30T15:32:10.491Z,17.00
2023-03-30T15:35:04.895Z,13.00
2023-03-30T15:37:35.172Z,15.50
2023-03-30T15:40:24.323Z,14.00
2023-03-30T15:43:12.066Z,19.00
2023-03-30T15:45:41.295Z,17.00
2023-03-30T15:48:11.883Z,19.00
2023-03-30T15:50:44.211Z,17.50
2023-03-30T15:53:20.500Z,16.00
2023-03-30T15:55:51.789Z,20.00
2023-03-30T15:58:26.294Z,15.00
2023-03-30T16:00:56.264Z,19.50
2023-03-30T16:03:41.885Z,20.00
2023-03-30T16:06:13.790Z,17.00
2023-03-30T16:08:43.931Z,18.00
2023-03-30T16:11:15.379Z,18.00
2023-03-30T16:13:48.275Z,16.50
2023-03-30T16:16:18.736Z,18.00
2023-03-30T16:18:47.646Z,16.00
2023-03-30T16:21:16.148Z,12.50
2023-03-30T16:23:44.125Z,14.00
2023-03-30T16:28:42.819Z,13.00
2023-03-30T16:31:18.230Z,13.50
2023-03-30T16:33:46.382Z,15.00
2023-03-30T16:36:17.345Z,14.00
2023-03-30T16:38:45.842Z,16.00
2023-03-30T16:43:49.533Z,15.00
2023-03-30T16:46:19.656Z,15.00
2023-03-30T16:48:48.289Z,11.50
2023-03-30T16:51:16.605Z,21.00
2023-03-30T16:53:44.537Z,15.00
2023-03-30T16:56:17.586Z,16.50
2023-03-30T16:58:47.148Z,14.00
2023-03-30T17:01:18.779Z,17.00
2023-03-30T17:03:47.304Z,15.50
2023-03-30T17:08:45.570Z,17.50
2023-03-30T17:11:14.002Z,18.50
2023-03-30T17:13:43.293Z,17.00
2023-03-30T17:16:14.305Z,16.00
2023-03-30T17:18:42.593Z,15.00
2023-03-30T17:21:16.701Z,15.00
2023-03-30T17:23:45.803Z,19.00
2023-03-30T17:26:13.839Z,19.00
2023-03-30T17:28:42.872Z,21.00
2023-03-30T17:31:16.800Z,17.50
2023-03-30T17:33:46.590Z,17.00
2023-03-30T17:36:18.903Z,20.00
2023-03-30T17:38:48.082Z,18.00
2023-03-30T17:41:19.425Z,20.00
2023-03-30T17:43:48.445Z,20.00
2023-03-30T17:46:18.813Z,22.00
2023-03-30T17:48:47.144Z,22.00
2023-03-30T17:51:15.066Z,22.50
2023-03-30T17:53:43.023Z,18.00
2023-03-30T17:56:13.417Z,21.50
2023-03-30T17:58:41.730Z,22.00
2023-03-30T18:01:10.083Z,22.00
2023-03-30T18:03:39.855Z,19.00
2023-03-30T18:06:11.615Z,22.00
2023-03-30T18:08:39.820Z,19.00
2023-03-30T18:11:08.105Z,18.50
2023-03-30T18:13:37.060Z,1.00
2023-03-30T18:16:06.219Z,20.00
2023-03-30T18:18:34.316Z,18.00
2023-03-30T18:21:04.444Z,17.00
2023-03-30T18:23:37.480Z,16.00
2023-03-30T18:26:10.199Z,19.00
2023-03-30T18:28:43.736Z,14.50
2023-03-30T18:31:12.415Z,20.00
2023-03-30T18:33:40.418Z,20.50
2023-03-30T18:36:13.136Z,24.00
2023-03-30T18:38:42.449Z,3.00
2023-03-30T18:41:13.957Z,24.50
2023-03-30T18:43:41.851Z,25.00
2023-03-30T18:46:13.152Z,23.00
2023-03-30T18:48:41.386Z,25.00
2023-03-30T18:51:16.989Z,24.00
2023-03-30T18:53:45.295Z,25.00
2023-03-30T18:56:13.880Z,23.50
2023-03-30T18:58:42.839Z,24.00
2023-03-30T19:01:13.516Z,22.33
2023-03-30T19:03:42.942Z,25.50
2023-03-30T19:06:24.906Z,25.00
2023-03-30T19:08:52.947Z,25.50
2023-03-30T19:11:23.695Z,27.00
2023-03-30T19:13:54.258Z,26.00
2023-03-30T19:18:51.124Z,23.00
2023-03-30T19:21:19.622Z,25.00
2023-03-30T19:23:47.752Z,25.00
2023-03-30T19:26:16.345Z,28.00
2023-03-30T19:28:44.451Z,25.00
2023-03-30T19:31:15.970Z,24.00
2023-03-30T19:33:44.448Z,25.00
2023-03-30T19:36:12.400Z,25.00
2023-03-30T19:38:40.876Z,23.50
2023-03-30T19:41:09.012Z,22.00
2023-03-30T19:43:37.035Z,22.50
2023-03-30T19:46:05.244Z,22.00
2023-03-30T19:48:33.147Z,18.00
2023-03-30T19:51:02.567Z,22.00
2023-03-30T19:53:30.699Z,19.00
2023-03-30T19:55:58.752Z,25.00
2023-03-30T19:58:26.677Z,23.00
2023-03-30T20:00:55.589Z,22.00
2023-03-30T20:03:23.823Z,20.00
2023-03-30T20:05:52.005Z,22.00
2023-03-30T20:08:24.855Z,25.00
2023-03-30T20:10:53.603Z,23.00
2023-03-30T20:13:24.040Z,22.00
2023-03-30T20:15:56.273Z,21.00
2023-03-30T20:18:24.537Z,19.50
2023-03-30T20:20:52.753Z,22.50
2023-03-30T20:23:20.666Z,24.00
2023-03-30T20:25:49.648Z,18.00
2023-03-30T20:28:17.932Z,22.50
2023-03-30T20:30:46.031Z,21.00
2023-03-30T20:33:14.570Z,19.50
2023-03-30T20:35:43.237Z,20.00
2023-03-30T20:38:11.164Z,20.50
2023-03-30T20:40:38.994Z,22.00
2023-03-30T20:43:10.711Z,23.50
2023-03-30T20:45:48.654Z,25.00
2023-03-30T20:48:26.614Z,23.00
2023-03-30T20:50:56.002Z,24.00
2023-03-30T20:53:24.006Z,23.00
2023-03-30T20:55:52.113Z,20.00
2023-03-30T20:58:22.444Z,21.00
2023-03-30T21:00:52.308Z,20.00
2023-03-30T21:03:21.511Z,23.00
2023-03-30T21:05:59.697Z,20.00
2023-03-30T21:08:28.787Z,22.00
2023-03-30T21:10:56.808Z,22.50
2023-03-30T21:13:24.951Z,21.50
2023-03-30T21:15:57.421Z,22.50
2023-03-30T21:18:25.713Z,21.50
2023-03-30T21:20:54.704Z,23.00
2023-03-30T21:23:25.420Z,24.50
2023-03-30T21:25:58.784Z,21.00
2023-03-30T21:28:29.472Z,23.00
2023-03-30T21:30:58.235Z,17.00
2023-03-30T21:33:28.836Z,25.00
2023-03-30T21:35:58.826Z,25.50
2023-03-30T21:38:28.337Z,29.00
2023-03-30T21:40:59.270Z,28.50
2023-03-30T21:43:34.586Z,29.50
2023-03-30T21:46:06.726Z,28.50
2023-03-30T21:48:37.498Z,27.00
2023-03-30T21:51:15.912Z,28.00
2023-03-30T21:53:46.310Z,25.00
2023-03-30T21:56:14.940Z,26.50
2023-03-30T22:01:12.725Z,28.00
2023-03-30T22:03:42.617Z,29.00
2023-03-30T22:06:14.094Z,26.50
2023-03-30T22:08:42.714Z,30.00
2023-03-30T22:11:19.560Z,29.50
2023-03-30T22:13:49.026Z,29.00
2023-03-30T22:16:24.146Z,25.00
2023-03-30T22:18:52.541Z,23.00
2023-03-30T22:21:29.309Z,21.50
2023-03-30T22:24:03.777Z,21.50
2023-03-30T22:26:32.225Z,18.00
2023-03-30T22:29:00.672Z,18.00
2023-03-30T22:31:28.818Z,22.00
2023-03-30T22:33:56.972Z,18.00
2023-03-30T22:36:33.207Z,15.00
2023-03-30T22:39:04.027Z,18.00
2023-03-30T22:41:31.978Z,21.00
2023-03-30T22:43:59.912Z,19.00
2023-03-30T22:46:28.183Z,20.00
2023-03-30T22:48:56.399Z,20.00
2023-03-30T22:51:28.504Z,22.00
2023-03-30T22:53:58.687Z,19.00
2023-03-30T22:56:28.946Z,18.00
2023-03-30T22:58:58.827Z,22.00
2023-03-30T23:01:32.074Z,21.50
2023-03-30T23:04:00.864Z,21.00
2023-03-30T23:06:29.263Z,19.00
2023-03-30T23:08:57.514Z,20.00
2023-03-30T23:11:26.610Z,17.00
2023-03-30T23:13:55.654Z,18.00
2023-03-30T23:16:24.145Z,18.00
2023-03-30T23:18:52.288Z,21.00
2023-03-30T23:21:22.366Z,20.00
2023-03-30T23:23:51.015Z,20.00
2023-03-30T23:26:19.731Z,21.00
2023-03-30T23:28:47.938Z,21.50
2023-03-30T23:31:18.225Z,19.00
2023-03-30T23:33:46.484Z,20.00
2023-03-30T23:36:17.372Z,21.00
2023-03-30T23:38:46.172Z,20.00
2023-03-30T23:41:17.136Z,20.00
2023-03-30T23:43:45.829Z,21.00
2023-03-30T23:46:15.492Z,21.00
2023-03-30T23:48:44.801Z,17.00
2023-03-30T23:51:13.102Z,17.00
2023-03-30T23:53:41.778Z,17.00
2023-03-30T23:56:13.342Z,17.00
2023-03-30T23:58:41.575Z,19.00
